Time;durP1;ratioP1;P1;durP2;ratioP2;P2;SDS_P1;SDS_P2;PMS_P1;PMS_P2;Temp;Humidity;BMP_temperature;BMP_pressure;BME280_temperature;BME280_humidity;BME280_pressure;Samples;Min_cycle;Max_cycle;Signal;HPM_P1;HPM_P2
2022/09/15 00:00:21;;;;;;;5.82;1.42;;;14.20;99.90;;;;;;5092315;28;20043;-66
2022/09/15 00:02:46;;;;;;;6.28;1.60;;;14.20;99.90;;;;;;5092185;28;20114;-66
2022/09/15 00:05:12;;;;;;;8.30;2.10;;;14.20;99.90;;;;;;5091839;28;20181;-66
2022/09/15 00:07:38;;;;;;;3.50;1.80;;;14.20;99.90;;;;;;5092057;28;20048;-66
2022/09/15 00:10:05;;;;;;;3.80;1.60;;;14.20;99.90;;;;;;5092209;28;20156;-66
2022/09/15 00:12:32;;;;;;;5.40;1.70;;;14.20;99.90;;;;;;5091178;28;20491;-66
2022/09/15 00:14:58;;;;;;;5.35;1.90;;;14.20;99.90;;;;;;5091668;28;20051;-66
2022/09/15 00:17:24;;;;;;;3.00;2.08;;;14.20;99.90;;;;;;5092067;28;20058;-67
2022/09/15 00:19:50;;;;;;;3.67;1.42;;;14.20;99.90;;;;;;5091994;28;20043;-66
2022/09/15 00:22:16;;;;;;;3.90;1.85;;;14.20;99.90;;;;;;5090856;28;20051;-67
2022/09/15 00:24:42;;;;;;;4.35;1.80;;;14.20;99.90;;;;;;5073579;28;20352;-66
2022/09/15 00:27:07;;;;;;;2.97;1.80;;;14.20;99.90;;;;;;5092053;28;20161;-67
2022/09/15 00:29:34;;;;;;;2.65;1.70;;;14.10;99.90;;;;;;5092004;28;20052;-67
2022/09/15 00:32:00;;;;;;;3.88;1.85;;;14.20;99.90;;;;;;5091238;28;20040;-66
2022/09/15 00:34:25;;;;;;;3.72;1.73;;;14.20;99.90;;;;;;5091769;28;20460;-66
2022/09/15 00:36:51;;;;;;;2.17;1.45;;;14.20;99.90;;;;;;5091836;28;20047;-67
2022/09/15 00:39:17;;;;;;;3.58;1.83;;;14.10;99.90;;;;;;5091773;28;20046;-66
2022/09/15 00:41:43;;;;;;;4.65;1.70;;;14.10;99.90;;;;;;5091914;28;20050;-66
2022/09/15 00:44:17;;;;;;;3.10;2.28;;;14.00;99.90;;;;;;5091474;28;20089;-67
2022/09/15 00:46:45;;;;;;;3.80;1.98;;;14.00;99.90;;;;;;5091632;28;20416;-67
2022/09/15 00:49:20;;;;;;;3.70;1.90;;;14.10;99.90;;;;;;5095672;28;20044;-66
2022/09/15 00:51:55;;;;;;;3.85;2.03;;;14.10;99.90;;;;;;5095874;28;20126;-66
2022/09/15 00:54:46;;;;;;;7.15;2.35;;;14.20;99.90;;;;;;5095521;28;20047;-66
2022/09/15 00:57:43;;;;;;;2.70;2.22;;;14.20;99.90;;;;;;5095758;28;20044;-67
2022/09/15 01:00:12;;;;;;;4.25;1.90;;;14.20;99.90;;;;;;5086912;28;20048;-67
2022/09/15 01:02:41;;;;;;;6.50;2.22;;;14.20;99.90;;;;;;5095518;28;20032;-66
2022/09/15 01:05:09;;;;;;;3.00;2.55;;;14.20;99.90;;;;;;5095331;28;20101;-67
2022/09/15 01:07:43;;;;;;;3.95;2.53;;;14.30;99.90;;;;;;5094200;28;20055;-66
2022/09/15 01:10:26;;;;;;;3.55;2.25;;;14.30;99.90;;;;;;5095580;28;20040;-66
2022/09/15 01:12:56;;;;;;;3.85;2.42;;;14.30;99.90;;;;;;5095495;28;20040;-67
2022/09/15 01:15:31;;;;;;;6.53;3.28;;;14.30;99.90;;;;;;5095048;28;20423;-66
2022/09/15 01:18:31;;;;;;;5.43;2.97;;;14.30;99.90;;;;;;5095228;28;20028;-66
2022/09/15 01:21:21;;;;;;;5.03;3.10;;;14.30;99.90;;;;;;5095145;28;20042;-67
2022/09/15 01:24:17;;;;;;;4.90;3.53;;;14.40;99.90;;;;;;5076643;28;20047;-67
2022/09/15 01:27:07;;;;;;;4.93;3.67;;;14.30;99.90;;;;;;5095224;28;20044;-67
2022/09/15 01:29:46;;;;;;;5.72;3.63;;;14.40;99.90;;;;;;5095175;28;20093;-66
2022/09/15 01:35:21;;;;;;;5.20;3.45;;;14.30;99.90;;;;;;5094779;28;20155;-67
2022/09/15 01:38:08;;;;;;;5.82;3.60;;;14.20;99.90;;;;;;5094962;28;20039;-66
2022/09/15 01:40:45;;;;;;;9.07;4.57;;;14.20;99.90;;;;;;5094748;28;20047;-67
2022/09/15 01:43:13;;;;;;;8.13;4.05;;;14.30;99.90;;;;;;5095022;28;20108;-66
2022/09/15 01:45:42;;;;;;;4.47;3.33;;;14.20;99.90;;;;;;5093412;28;20044;-67
2022/09/15 01:48:09;;;;;;;7.25;4.00;;;14.20;99.90;;;;;;5094803;28;20035;-67
2022/09/15 01:50:45;;;;;;;6.38;3.58;;;14.20;99.90;;;;;;5094730;28;20032;-66
2022/09/15 01:53:16;;;;;;;8.82;3.80;;;14.30;99.90;;;;;;5093337;28;20051;-66
2022/09/15 01:55:58;;;;;;;5.70;3.65;;;14.30;99.90;;;;;;5093282;28;20044;-66
2022/09/15 01:58:24;;;;;;;8.00;3.90;;;14.40;99.90;;;;;;5094966;28;20396;-66
2022/09/15 02:00:59;;;;;;;9.73;3.55;;;14.30;99.90;;;;;;5092611;28;20032;-66
2022/09/15 02:03:43;;;;;;;7.03;3.10;;;14.40;99.90;;;;;;5094356;28;20040;-66
2022/09/15 02:06:34;;;;;;;7.50;3.35;;;14.40;99.90;;;;;;5094617;28;20048;-67
2022/09/15 02:09:11;;;;;;;10.63;3.80;;;14.40;99.90;;;;;;5094634;28;20455;-67
2022/09/15 02:11:41;;;;;;;10.85;3.22;;;14.40;99.90;;;;;;5094309;28;20381;-66
2022/09/15 02:14:20;;;;;;;5.82;3.28;;;14.40;99.90;;;;;;5093983;28;20055;-67
2022/09/15 02:16:52;;;;;;;5.55;3.20;;;14.40;99.90;;;;;;5092974;28;20484;-66
2022/09/15 02:19:30;;;;;;;4.53;3.17;;;14.40;99.90;;;;;;5094208;28;20504;-67
2022/09/15 02:22:21;;;;;;;7.50;2.97;;;14.40;99.90;;;;;;5093996;28;20078;-66
2022/09/15 02:24:53;;;;;;;6.57;3.25;;;14.40;99.90;;;;;;5093992;28;20040;-66
2022/09/15 02:27:22;;;;;;;7.60;3.40;;;14.40;99.90;;;;;;5094243;28;20373;-66
2022/09/15 02:29:49;;;;;;;12.73;3.55;;;14.40;99.90;;;;;;5093891;28;20088;-66
2022/09/15 02:32:18;;;;;;;7.40;2.95;;;14.40;99.90;;;;;;5093272;28;20048;-67
2022/09/15 02:34:47;;;;;;;5.90;3.15;;;14.40;99.90;;;;;;5093624;28;20051;-67
2022/09/15 02:37:13;;;;;;;7.13;2.72;;;14.40;99.90;;;;;;5092826;28;20055;-66
2022/09/15 02:39:45;;;;;;;5.70;2.42;;;14.40;99.90;;;;;;5093748;28;20036;-67
2022/09/15 02:42:11;;;;;;;9.75;3.10;;;14.40;99.90;;;;;;5093774;28;20111;-66
2022/09/15 02:44:36;;;;;;;5.75;3.00;;;14.40;99.90;;;;;;5093266;28;20032;-66
2022/09/15 02:47:02;;;;;;;5.35;2.45;;;14.40;99.90;;;;;;5092601;28;20044;-66
2022/09/15 02:49:28;;;;;;;3.47;1.90;;;14.40;99.90;;;;;;5093596;28;20127;-66
2022/09/15 02:51:54;;;;;;;4.22;2.22;;;14.40;99.90;;;;;;5092331;28;20126;-66
2022/09/15 02:54:20;;;;;;;5.20;2.13;;;14.40;99.90;;;;;;5093705;28;20040;-66
2022/09/15 02:56:46;;;;;;;8.07;2.30;;;14.40;99.90;;;;;;5093295;28;20491;-66
2022/09/15 02:59:12;;;;;;;7.88;2.50;;;14.40;99.90;;;;;;5092076;28;20044;-66
2022/09/15 03:01:39;;;;;;;7.68;2.38;;;14.40;99.90;;;;;;5093575;28;20036;-67
2022/09/15 03:04:06;;;;;;;8.13;2.55;;;14.40;99.90;;;;;;5093007;28;20487;-67
2022/09/15 03:06:35;;;;;;;8.60;2.50;;;14.40;99.90;;;;;;5093377;28;20124;-66
2022/09/15 03:09:05;;;;;;;10.75;2.15;;;14.40;99.90;;;;;;5093210;28;20046;-66
2022/09/15 03:11:31;;;;;;;5.70;2.40;;;14.40;99.90;;;;;;5093122;28;20032;-66
2022/09/15 03:14:02;;;;;;;7.20;2.17;;;14.40;99.90;;;;;;5092805;28;20419;-66
2022/09/15 03:16:30;;;;;;;4.57;1.67;;;14.50;99.90;;;;;;5091815;28;20067;-66
2022/09/15 03:18:59;;;;;;;5.18;1.40;;;14.40;99.90;;;;;;5093110;28;20408;-66
2022/09/15 03:21:28;;;;;;;8.35;1.80;;;14.40;99.90;;;;;;5093177;28;20036;-66
2022/09/15 03:23:55;;;;;;;6.60;1.90;;;14.50;99.90;;;;;;5092624;28;20040;-66
2022/09/15 03:26:20;;;;;;;7.97;1.85;;;14.50;99.90;;;;;;5092821;28;20065;-66
2022/09/15 03:28:46;;;;;;;13.13;1.73;;;14.50;99.90;;;;;;5093077;28;20035;-66
2022/09/15 03:31:11;;;;;;;6.47;1.58;;;14.50;99.90;;;;;;5093026;28;20219;-66
2022/09/15 03:33:37;;;;;;;5.22;1.60;;;14.50;99.90;;;;;;5092650;28;20412;-66
2022/09/15 03:36:03;;;;;;;4.90;1.60;;;14.50;99.90;;;;;;5092491;28;20032;-66
2022/09/15 03:38:29;;;;;;;3.45;1.20;;;14.50;99.90;;;;;;5092665;28;20480;-67
2022/09/15 03:41:19;;;;;;;6.03;1.63;;;14.50;99.90;;;;;;5092547;28;20043;-66
2022/09/15 03:43:44;;;;;;;6.10;1.42;;;14.40;99.90;;;;;;5091635;28;20102;-67
2022/09/15 03:46:10;;;;;;;8.65;1.48;;;14.50;99.90;;;;;;5092624;28;20044;-66
2022/09/15 03:48:39;;;;;;;4.22;1.38;;;14.50;99.90;;;;;;5092473;28;20040;-66
2022/09/15 03:51:05;;;;;;;3.70;1.55;;;14.50;99.90;;;;;;5092407;28;20452;-66
2022/09/15 03:53:36;;;;;;;8.38;1.98;;;14.50;99.90;;;;;;5092257;28;20671;-66
2022/09/15 03:56:25;;;;;;;6.25;1.55;;;14.50;99.90;;;;;;5092253;28;20090;-66
2022/09/15 03:58:52;;;;;;;4.38;1.30;;;14.50;99.90;;;;;;5092608;28;20036;-66
2022/09/15 04:01:18;;;;;;;8.35;1.38;;;14.50;99.90;;;;;;5092749;28;20085;-67
2022/09/15 04:03:45;;;;;;;6.57;1.50;;;14.50;99.90;;;;;;5091849;28;20046;-67
2022/09/15 04:06:10;;;;;;;9.30;1.40;;;14.50;99.90;;;;;;5092513;28;20111;-66
2022/09/15 04:08:36;;;;;;;8.20;1.65;;;14.50;99.90;;;;;;5092308;28;20044;-66
2022/09/15 04:11:07;;;;;;;5.25;1.35;;;14.50;99.90;;;;;;5092233;28;20040;-66
2022/09/15 04:13:33;;;;;;;6.43;1.42;;;14.50;99.90;;;;;;5092039;28;20047;-67
2022/09/15 04:16:01;;;;;;;5.90;1.50;;;14.50;99.90;;;;;;5091815;28;20048;-66
2022/09/15 04:18:28;;;;;;;4.30;1.55;;;14.50;99.90;;;;;;5090959;28;20036;-67
2022/09/15 04:21:01;;;;;;;7.35;1.50;;;14.50;99.90;;;;;;5090973;28;20032;-66
2022/09/15 04:23:27;;;;;;;4.65;1.30;;;14.50;99.90;;;;;;5090183;28;20039;-66
2022/09/15 04:25:57;;;;;;;5.38;1.65;;;14.50;99.90;;;;;;5091845;28;20044;-66
2022/09/15 04:28:24;;;;;;;3.90;1.20;;;14.50;99.90;;;;;;5091972;28;20125;-66
2022/09/15 04:30:50;;;;;;;5.47;1.38;;;14.50;99.90;;;;;;5091592;28;20093;-66
2022/09/15 04:33:16;;;;;;;3.97;1.40;;;14.50;99.90;;;;;;5091841;28;20048;-66
2022/09/15 04:35:41;;;;;;;5.32;1.77;;;14.50;99.90;;;;;;5091430;28;20076;-66
2022/09/15 04:38:07;;;;;;;6.07;1.60;;;14.40;99.90;;;;;;5091850;28;20078;-66
2022/09/15 04:40:32;;;;;;;8.48;1.45;;;14.40;99.90;;;;;;5091610;28;20044;-66
2022/09/15 04:42:58;;;;;;;7.68;1.48;;;14.40;99.90;;;;;;5092073;28;20473;-67
2022/09/15 04:45:24;;;;;;;6.28;1.63;;;14.40;99.90;;;;;;5090366;28;20071;-66
2022/09/15 04:47:50;;;;;;;9.35;2.22;;;14.40;99.90;;;;;;5073801;28;20090;-67
2022/09/15 04:50:16;;;;;;;8.63;1.60;;;14.40;99.90;;;;;;5090657;28;20039;-66
2022/09/15 04:52:41;;;;;;;6.43;1.80;;;14.40;99.90;;;;;;5091533;28;20066;-66
2022/09/15 04:55:07;;;;;;;10.88;2.40;;;14.40;99.90;;;;;;5091257;28;20123;-66
2022/09/15 04:57:33;;;;;;;4.80;1.98;;;14.40;99.90;;;;;;5091819;28;20032;-66
2022/09/15 04:59:59;;;;;;;6.50;1.75;;;14.40;99.90;;;;;;5090056;28;20079;-67
2022/09/15 05:02:25;;;;;;;6.70;1.88;;;14.40;99.90;;;;;;5090841;28;20078;-67
2022/09/15 05:04:51;;;;;;;6.15;1.95;;;14.40;99.90;;;;;;5090578;28;20032;-66
2022/09/15 05:07:17;;;;;;;9.40;1.85;;;14.40;99.90;;;;;;5090586;28;20032;-66
2022/09/15 05:09:43;;;;;;;6.75;1.55;;;14.30;99.90;;;;;;5088569;28;20054;-66
2022/09/15 05:12:08;;;;;;;6.70;2.05;;;14.40;99.90;;;;;;5088932;28;20141;-67
2022/09/15 05:14:34;;;;;;;6.10;1.52;;;14.40;99.90;;;;;;5090045;28;20063;-67
2022/09/15 05:16:59;;;;;;;4.47;1.95;;;14.40;99.90;;;;;;5091362;28;20075;-66
2022/09/15 05:19:25;;;;;;;4.53;1.48;;;14.40;99.90;;;;;;5090353;28;20040;-67
2022/09/15 05:21:50;;;;;;;6.85;1.63;;;14.40;99.90;;;;;;5090147;28;20046;-67
2022/09/15 05:24:16;;;;;;;7.15;1.85;;;14.40;99.90;;;;;;5090986;28;20044;-67
2022/09/15 05:26:41;;;;;;;7.63;2.20;;;14.40;99.90;;;;;;5091726;28;20160;-66
2022/09/15 05:29:07;;;;;;;11.52;1.77;;;14.40;99.90;;;;;;5091470;28;20087;-66
2022/09/15 05:31:33;;;;;;;8.88;1.42;;;14.40;99.90;;;;;;5091513;28;20040;-66
2022/09/15 05:34:01;;;;;;;7.60;1.50;;;14.40;99.90;;;;;;5089748;28;20065;-66
2022/09/15 05:36:26;;;;;;;5.68;1.30;;;14.40;99.90;;;;;;5094895;28;20143;-67
2022/09/15 05:38:55;;;;;;;8.02;1.67;;;14.50;99.90;;;;;;5095185;28;20119;-66
2022/09/15 05:41:21;;;;;;;6.93;1.83;;;14.40;99.90;;;;;;5095108;28;20032;-66
2022/09/15 05:43:48;;;;;;;8.32;1.63;;;14.40;99.90;;;;;;5093529;28;20139;-66
2022/09/15 05:46:16;;;;;;;6.20;1.58;;;14.40;99.90;;;;;;5094881;28;20040;-66
2022/09/15 05:48:41;;;;;;;9.13;1.50;;;14.50;99.90;;;;;;5094711;28;20399;-66
2022/09/15 05:51:07;;;;;;;9.02;1.33;;;14.50;99.90;;;;;;5094857;28;20036;-66
2022/09/15 05:53:34;;;;;;;5.63;1.42;;;14.50;99.90;;;;;;5094794;28;20492;-66
2022/09/15 05:56:02;;;;;;;6.47;1.55;;;14.50;99.90;;;;;;5094464;28;20104;-66
2022/09/15 05:58:29;;;;;;;5.93;1.40;;;14.50;99.90;;;;;;5094639;28;20040;-67
2022/09/15 06:00:55;;;;;;;9.82;1.85;;;14.50;99.90;;;;;;5094641;28;20096;-67
2022/09/15 06:03:22;;;;;;;6.50;1.48;;;14.50;99.90;;;;;;5094361;28;20508;-67
2022/09/15 06:05:48;;;;;;;7.10;1.42;;;14.50;99.90;;;;;;5092902;28;20072;-67
2022/09/15 06:08:14;;;;;;;9.13;1.48;;;14.60;99.90;;;;;;5094610;28;20121;-67
2022/09/15 06:10:40;;;;;;;10.55;1.30;;;14.60;99.90;;;;;;5094405;28;20040;-66
2022/09/15 06:13:06;;;;;;;7.82;1.63;;;14.60;99.90;;;;;;5094196;28;20040;-66
2022/09/15 06:15:32;;;;;;;9.02;1.40;;;14.60;99.90;;;;;;5093903;28;20063;-66
2022/09/15 06:17:57;;;;;;;11.40;1.80;;;14.60;99.90;;;;;;5094151;28;20107;-67
2022/09/15 06:20:24;;;;;;;7.15;1.42;;;14.60;99.90;;;;;;5094189;28;20670;-67
2022/09/15 06:22:49;;;;;;;8.65;1.63;;;14.60;99.90;;;;;;5093080;28;20413;-66
2022/09/15 06:25:15;;;;;;;5.50;1.30;;;14.70;99.90;;;;;;5093851;28;20036;-66
2022/09/15 06:27:41;;;;;;;8.90;1.50;;;14.70;99.90;;;;;;5094496;28;20043;-66
2022/09/15 06:30:07;;;;;;;7.85;1.70;;;14.70;99.90;;;;;;5093957;28;20036;-66
2022/09/15 06:32:34;;;;;;;9.65;1.40;;;14.80;99.90;;;;;;5093741;28;20036;-67
2022/09/15 06:34:59;;;;;;;10.25;1.60;;;14.80;99.90;;;;;;5093570;28;20392;-67
2022/09/15 06:37:25;;;;;;;6.22;1.52;;;14.90;99.90;;;;;;5093989;28;20028;-67
2022/09/15 06:39:50;;;;;;;4.30;1.33;;;15.00;99.90;;;;;;5093798;28;20492;-66
2022/09/15 06:42:16;;;;;;;7.88;1.20;;;15.10;99.90;;;;;;5093738;28;20063;-66
2022/09/15 06:44:41;;;;;;;8.18;1.42;;;15.10;99.90;;;;;;5093099;28;20035;-66
2022/09/15 06:47:07;;;;;;;9.75;1.73;;;15.10;99.90;;;;;;5093249;28;20055;-66
2022/09/15 06:49:32;;;;;;;7.60;1.38;;;15.10;99.90;;;;;;5093837;28;20039;-66
2022/09/15 06:52:01;;;;;;;6.93;1.52;;;15.10;99.90;;;;;;5093641;28;20540;-66
2022/09/15 06:54:26;;;;;;;10.48;1.40;;;15.20;99.90;;;;;;5093305;28;20071;-66
2022/09/15 06:56:52;;;;;;;4.38;0.88;;;15.10;99.90;;;;;;5093386;28;20095;-66
2022/09/15 06:59:17;;;;;;;5.70;1.40;;;15.20;99.90;;;;;;5092100;28;20036;-67
2022/09/15 07:01:43;;;;;;;7.43;1.50;;;15.20;99.90;;;;;;5093294;28;20123;-66
2022/09/15 07:04:09;;;;;;;10.13;1.33;;;15.20;99.90;;;;;;5092896;28;20040;-66
2022/09/15 07:06:36;;;;;;;8.35;1.20;;;15.20;99.90;;;;;;5093384;28;20040;-66
2022/09/15 07:09:04;;;;;;;6.60;1.20;;;15.30;99.90;;;;;;5093329;28;20048;-67
2022/09/15 07:11:30;;;;;;;5.78;1.40;;;15.30;99.90;;;;;;5092099;28;20127;-67
2022/09/15 07:13:56;;;;;;;6.80;1.20;;;15.40;99.90;;;;;;5092967;28;20036;-66
2022/09/15 07:16:24;;;;;;;8.30;1.42;;;15.40;99.90;;;;;;5093181;28;20105;-66
2022/09/15 07:18:50;;;;;;;10.40;1.58;;;15.40;99.90;;;;;;5092037;28;20082;-66
2022/09/15 07:21:18;;;;;;;10.48;1.60;;;15.50;99.90;;;;;;5093089;28;20036;-66
2022/09/15 07:23:45;;;;;;;13.00;1.58;;;15.50;99.90;;;;;;5092769;28;20048;-66
2022/09/15 07:26:15;;;;;;;6.03;1.20;;;15.50;99.90;;;;;;5093013;28;20076;-66
2022/09/15 07:28:44;;;;;;;8.80;1.60;;;15.60;99.90;;;;;;5092785;28;20040;-66
2022/09/15 07:31:12;;;;;;;3.75;1.05;;;15.60;99.90;;;;;;5092616;28;20040;-67
2022/09/15 07:33:38;;;;;;;10.55;1.33;;;15.60;99.90;;;;;;5091416;28;20043;-67
2022/09/15 07:36:05;;;;;;;5.53;0.90;;;15.70;99.90;;;;;;5092295;28;20036;-67
2022/09/15 07:38:31;;;;;;;9.55;1.35;;;15.70;99.90;;;;;;5091341;28;20096;-66
2022/09/15 07:41:05;;;;;;;5.18;0.80;;;15.80;99.90;;;;;;5092719;28;20480;-66
2022/09/15 07:43:31;;;;;;;6.43;1.15;;;15.80;99.90;;;;;;5091494;28;20044;-66
2022/09/15 07:45:57;;;;;;;4.80;1.10;;;15.80;99.90;;;;;;5092435;28;20036;-66
2022/09/15 07:48:23;;;;;;;6.18;1.35;;;15.80;99.90;;;;;;5091519;28;20040;-67
2022/09/15 07:50:48;;;;;;;10.70;1.60;;;15.90;99.90;;;;;;5092407;28;20036;-67
2022/09/15 07:53:14;;;;;;;10.75;1.13;;;15.90;99.90;;;;;;5091357;28;20040;-67
2022/09/15 07:55:40;;;;;;;5.80;1.42;;;16.00;99.90;;;;;;5091935;28;20063;-66
2022/09/15 07:58:05;;;;;;;9.38;1.20;;;16.00;99.90;;;;;;5091749;28;20036;-66
2022/09/15 08:00:31;;;;;;;10.18;1.40;;;16.10;99.90;;;;;;5092301;28;20040;-66
2022/09/15 08:02:56;;;;;;;7.03;1.17;;;16.10;99.90;;;;;;5092245;28;20036;-67
2022/09/15 08:05:27;;;;;;;8.23;1.00;;;16.20;99.90;;;;;;5091893;28;20496;-67
2022/09/15 08:07:56;;;;;;;9.10;1.25;;;16.20;99.90;;;;;;5092472;28;20057;-66
2022/09/15 08:10:25;;;;;;;8.32;1.00;;;16.30;99.90;;;;;;5092287;28;20062;-67
2022/09/15 08:12:51;;;;;;;5.93;1.40;;;16.30;99.90;;;;;;5092146;28;20123;-66
2022/09/15 08:15:17;;;;;;;6.00;1.40;;;16.40;99.90;;;;;;5090357;28;20052;-67
2022/09/15 08:17:45;;;;;;;8.05;1.50;;;16.40;99.90;;;;;;5092086;28;20459;-66
2022/09/15 08:20:11;;;;;;;6.65;1.10;;;16.50;99.90;;;;;;5092267;28;20127;-66
2022/09/15 08:22:38;;;;;;;3.53;0.85;;;16.50;99.90;;;;;;5092159;28;20043;-67
2022/09/15 08:25:04;;;;;;;7.78;1.92;;;16.50;99.90;;;;;;5092096;28;20047;-67
2022/09/15 08:27:30;;;;;;;11.15;1.35;;;16.50;99.90;;;;;;5092204;28;20442;-66
2022/09/15 08:29:55;;;;;;;7.57;1.10;;;16.60;99.90;;;;;;5091596;28;20036;-67
2022/09/15 08:32:21;;;;;;;6.45;1.10;;;16.50;99.90;;;;;;5090518;28;20036;-67
2022/09/15 08:34:46;;;;;;;3.33;1.00;;;16.50;99.90;;;;;;5091512;28;20488;-66
2022/09/15 08:37:12;;;;;;;7.65;1.23;;;16.60;99.90;;;;;;5091886;28;20051;-66
2022/09/15 08:39:37;;;;;;;7.43;1.20;;;16.70;99.90;;;;;;5091834;28;20032;-66
2022/09/15 08:42:04;;;;;;;5.88;1.27;;;16.80;99.90;;;;;;5091614;28;20029;-66
2022/09/15 08:44:54;;;;;;;3.63;1.00;;;16.90;99.90;;;;;;5091371;28;20534;-66
2022/09/15 08:47:41;;;;;;;8.90;1.10;;;16.90;99.90;;;;;;5077466;28;20420;-66
2022/09/15 08:50:29;;;;;;;6.43;1.33;;;17.00;99.90;;;;;;5091734;28;20489;-66
2022/09/15 08:53:24;;;;;;;4.50;1.23;;;17.00;99.90;;;;;;5091609;28;20387;-66
2022/09/15 08:55:57;;;;;;;4.32;0.85;;;17.10;99.90;;;;;;5091568;28;20098;-66
2022/09/15 08:58:28;;;;;;;9.93;1.00;;;17.10;99.90;;;;;;5091760;28;20036;-66
2022/09/15 09:01:09;;;;;;;7.95;1.40;;;17.10;99.90;;;;;;5091731;28;20044;-66
2022/09/15 09:04:01;;;;;;;5.00;0.90;;;17.20;99.90;;;;;;5091730;28;20036;-67
2022/09/15 09:06:56;;;;;;;5.68;1.17;;;17.20;99.90;;;;;;5091733;28;20040;-67
2022/09/15 09:09:56;;;;;;;3.53;1.10;;;17.20;99.90;;;;;;5093942;28;20082;-67
2022/09/15 09:12:59;;;;;;;3.58;0.90;;;17.10;99.90;;;;;;5095382;28;20502;-67
2022/09/15 09:15:57;;;;;;;8.27;1.88;;;17.10;99.90;;;;;;5095054;28;20044;-67
2022/09/15 09:18:28;;;;;;;4.68;1.33;;;17.20;99.90;;;;;;5095630;28;20040;-67
2022/09/15 09:21:14;;;;;;;4.17;1.00;;;17.20;99.90;;;;;;5095453;28;20093;-67
2022/09/15 09:23:47;;;;;;;3.88;1.50;;;17.30;99.90;;;;;;5095253;28;20040;-67
2022/09/15 09:26:14;;;;;;;6.32;1.05;;;17.30;99.90;;;;;;5095078;28;20097;-67
2022/09/15 09:28:50;;;;;;;4.88;0.80;;;17.40;99.90;;;;;;5093905;28;20089;-67
2022/09/15 09:31:20;;;;;;;5.35;1.65;;;17.40;99.90;;;;;;5095377;28;20036;-67
2022/09/15 09:34:04;;;;;;;4.15;1.00;;;17.40;99.90;;;;;;5094751;28;20036;-67
2022/09/15 09:36:29;;;;;;;4.20;1.00;;;17.50;99.90;;;;;;5095033;28;20044;-67
2022/09/15 09:38:57;;;;;;;5.32;0.90;;;17.50;99.90;;;;;;5094853;28;20039;-67
2022/09/15 09:41:25;;;;;;;3.63;0.80;;;17.60;99.90;;;;;;5093952;28;20404;-67
2022/09/15 09:43:54;;;;;;;6.55;0.80;;;17.60;99.90;;;;;;5094697;28;20031;-67
2022/09/15 09:46:20;;;;;;;10.55;1.00;;;17.70;99.90;;;;;;5094979;28;20040;-67
2022/09/15 09:48:54;;;;;;;5.07;1.35;;;17.80;99.90;;;;;;5094853;28;20108;-67
2022/09/15 09:51:37;;;;;;;5.63;1.25;;;17.80;99.90;;;;;;5094647;28;20050;-67
2022/09/15 09:54:16;;;;;;;6.55;0.90;;;17.90;99.90;;;;;;5094380;28;20500;-67
2022/09/15 09:56:43;;;;;;;3.67;0.80;;;17.90;99.90;;;;;;5094680;28;20048;-67
2022/09/15 09:59:31;;;;;;;4.15;0.98;;;18.00;99.90;;;;;;5076507;28;20044;-67
2022/09/15 10:02:17;;;;;;;8.10;0.80;;;18.10;99.90;;;;;;5094713;28;20044;-67
2022/09/15 10:05:13;;;;;;;3.25;1.27;;;18.10;99.90;;;;;;5094504;28;20040;-67
2022/09/15 10:07:44;;;;;;;6.32;0.95;;;18.10;99.90;;;;;;5094356;28;20036;-67
2022/09/15 10:10:24;;;;;;;6.35;1.02;;;18.10;99.90;;;;;;5094574;28;20036;-67
2022/09/15 10:12:55;;;;;;;4.70;1.17;;;18.00;99.90;;;;;;5094442;28;20048;-67
2022/09/15 10:15:26;;;;;;;4.32;0.80;;;18.10;99.90;;;;;;5092820;28;20051;-67
2022/09/15 10:17:54;;;;;;;3.22;0.93;;;18.10;99.90;;;;;;5094368;28;20093;-67
2022/09/15 10:20:24;;;;;;;4.07;0.90;;;18.10;99.90;;;;;;5093362;28;20506;-67
2022/09/15 10:22:50;;;;;;;3.75;0.88;;;18.20;99.90;;;;;;5094451;28;20089;-67
2022/09/15 10:25:19;;;;;;;4.43;1.15;;;18.20;99.90;;;;;;5094000;28;20036;-67
2022/09/15 10:28:09;;;;;;;7.25;1.00;;;18.30;99.90;;;;;;5092827;28;20040;-67
2022/09/15 10:30:35;;;;;;;5.95;1.10;;;18.30;99.90;;;;;;5093707;28;20044;-67
2022/09/15 10:33:24;;;;;;;6.45;1.13;;;18.40;99.90;;;;;;5094089;28;20040;-67
2022/09/15 10:35:50;;;;;;;4.85;0.93;;;18.30;99.90;;;;;;5093601;28;20496;-67
2022/09/15 10:38:28;;;;;;;6.38;0.93;;;18.40;99.90;;;;;;5093814;28;20036;-67
2022/09/15 10:40:54;;;;;;;5.82;1.05;;;18.40;99.90;;;;;;5093981;28;20036;-67
2022/09/15 10:43:28;;;;;;;4.05;0.95;;;18.40;99.90;;;;;;5093582;28;20091;-67
2022/09/15 10:46:34;;;;;;;4.43;1.13;;;18.50;99.90;;;;;;5093560;28;20055;-67
2022/09/15 10:49:16;;;;;;;5.00;0.80;;;18.50;99.90;;;;;;5059383;28;20124;-67
2022/09/15 10:52:16;;;;;;;3.20;0.93;;;18.50;99.90;;;;;;5093659;28;20044;-67
2022/09/15 10:55:02;;;;;;;3.47;0.90;;;18.50;99.90;;;;;;5093126;28;20050;-67
2022/09/15 10:58:18;;;;;;;3.67;0.68;;;18.60;99.90;;;;;;5093596;28;20039;-67
2022/09/15 11:01:23;;;;;;;2.92;0.75;;;18.70;99.90;;;;;;5011144;28;20141;-67
2022/09/15 11:04:07;;;;;;;2.70;1.00;;;18.80;99.90;;;;;;5010775;28;20042;-67
2022/09/15 11:07:02;;;;;;;3.67;0.82;;;18.80;99.90;;;;;;5011062;28;20054;-67
2022/09/15 11:09:33;;;;;;;4.28;0.90;;;18.80;99.90;;;;;;4994541;28;20630;-67
2022/09/15 11:12:31;;;;;;;6.72;1.00;;;18.70;99.90;;;;;;5010890;28;20050;-67
2022/09/15 11:15:18;;;;;;;3.50;1.08;;;18.70;99.90;;;;;;5010475;28;20453;-67
2022/09/15 11:18:14;;;;;;;4.50;0.90;;;18.60;99.90;;;;;;5010744;28;20277;-67
2022/09/15 11:20:42;;;;;;;3.47;0.90;;;18.60;99.90;;;;;;5010785;28;20136;-67
2022/09/15 11:23:14;;;;;;;7.65;1.15;;;18.40;99.90;;;;;;5010643;28;20073;-67
2022/09/15 11:25:45;;;;;;;5.87;1.10;;;18.30;99.90;;;;;;4994409;28;20116;-67
2022/09/15 11:28:27;;;;;;;2.20;1.00;;;18.10;99.90;;;;;;5010722;28;20152;-67
2022/09/15 11:31:04;;;;;;;2.95;0.88;;;17.80;99.90;;;;;;5030744;28;20063;-67
2022/09/15 11:33:47;;;;;;;4.68;1.00;;;17.60;99.90;;;;;;5091939;28;20044;-67
2022/09/15 11:36:33;;;;;;;5.88;1.00;;;17.50;99.90;;;;;;5092759;28;20120;-67
2022/09/15 11:39:17;;;;;;;3.97;1.23;;;17.60;99.90;;;;;;5092894;28;20044;-67
2022/09/15 11:41:49;;;;;;;5.25;1.00;;;17.50;99.90;;;;;;5092849;28;20119;-67
2022/09/15 11:44:30;;;;;;;5.60;1.20;;;17.40;99.90;;;;;;5092454;28;20115;-67
2022/09/15 11:47:32;;;;;;;4.20;1.13;;;17.40;99.90;;;;;;5092523;28;20090;-67
2022/09/15 11:50:07;;;;;;;3.10;0.88;;;17.40;99.90;;;;;;5092731;28;20374;-67
2022/09/15 11:52:35;;;;;;;4.97;0.85;;;17.40;99.90;;;;;;5092528;28;20093;-67
2022/09/15 11:55:20;;;;;;;7.57;1.00;;;17.40;99.90;;;;;;5092075;28;20044;-67
2022/09/15 11:58:17;;;;;;;2.88;1.23;;;17.50;99.90;;;;;;5092618;28;20369;-67
2022/09/15 12:01:09;;;;;;;5.03;1.00;;;17.40;99.90;;;;;;5092416;28;20036;-67
2022/09/15 12:04:07;;;;;;;3.83;1.20;;;17.40;99.90;;;;;;5082860;28;20044;-67
2022/09/15 12:07:02;;;;;;;7.63;1.20;;;17.50;99.90;;;;;;5092435;28;20047;-67
2022/09/15 12:09:28;;;;;;;8.52;1.20;;;17.40;99.90;;;;;;5092299;28;20073;-67
2022/09/15 12:12:06;;;;;;;2.70;1.05;;;17.40;99.90;;;;;;5092079;28;20440;-67
2022/09/15 12:14:39;;;;;;;5.07;0.90;;;17.40;99.90;;;;;;5091851;28;20478;-67
2022/09/15 12:17:08;;;;;;;4.25;1.27;;;17.50;99.90;;;;;;5090779;28;20044;-67
2022/09/15 12:19:51;;;;;;;4.75;1.30;;;17.60;99.90;;;;;;5092140;28;20044;-67
2022/09/15 12:22:27;;;;;;;5.40;1.08;;;17.60;99.90;;;;;;5091956;28;20056;-67
2022/09/15 12:25:00;;;;;;;3.80;1.02;;;17.70;99.90;;;;;;5091994;28;20043;-67
2022/09/15 12:27:26;;;;;;;;;;;17.60;99.90;;;;;;5092519;28;20047;-67
2022/09/15 12:29:56;;;;;;;2.03;1.00;;;17.60;99.90;;;;;;5092129;28;20006;-67
2022/09/15 12:32:27;;;;;;;4.07;1.00;;;17.60;99.90;;;;;;5092000;28;20043;-67
2022/09/15 12:35:15;;;;;;;3.45;1.00;;;17.60;99.90;;;;;;5091550;28;20169;-67
2022/09/15 12:37:57;;;;;;;3.42;0.98;;;17.70;99.90;;;;;;5092192;28;20078;-67
2022/09/15 12:40:31;;;;;;;1.48;0.75;;;17.70;99.90;;;;;;5090799;28;20249;-67
2022/09/15 12:42:57;;;;;;;2.30;0.75;;;17.70;99.90;;;;;;5090801;28;20109;-67
2022/09/15 12:45:26;;;;;;;7.78;1.95;;;17.70;99.90;;;;;;5095647;28;20040;-67
2022/09/15 12:47:56;;;;;;;4.20;0.75;;;17.80;99.90;;;;;;5096279;28;20040;-67
2022/09/15 12:50:29;;;;;;;8.93;0.95;;;17.80;99.90;;;;;;5096142;28;20040;-67
2022/09/15 12:53:02;;;;;;;1.92;0.90;;;17.80;99.90;;;;;;5095947;28;20114;-67
2022/09/15 12:55:33;;;;;;;4.97;1.00;;;17.80;99.90;;;;;;5096039;28;20040;-67
2022/09/15 12:58:06;;;;;;;4.45;1.10;;;17.90;99.90;;;;;;5095662;28;20039;-67
2022/09/15 13:00:37;;;;;;;2.92;0.80;;;17.90;99.90;;;;;;5095968;28;20059;-67
2022/09/15 13:03:05;;;;;;;1.77;0.70;;;17.90;99.90;;;;;;5095797;28;20040;-67
2022/09/15 13:05:44;;;;;;;2.95;0.80;;;18.00;99.90;;;;;;5095410;28;20118;-67
2022/09/15 13:08:28;;;;;;;4.63;0.82;;;18.10;99.90;;;;;;5095721;28;20377;-67
2022/09/15 13:11:12;;;;;;;1.92;0.50;;;18.10;99.90;;;;;;5095732;28;20040;-67
2022/09/15 13:13:58;;;;;;;6.13;1.00;;;18.10;99.90;;;;;;5095650;28;20043;-67